Time;durP1;ratioP1;P1;durP2;ratioP2;P2;SDS_P1;SDS_P2;PMS_P1;PMS_P2;Temp;Humidity;BMP_temperature;BMP_pressure;BME280_temperature;BME280_humidity;BME280_pressure;Samples;Min_cycle;Max_cycle;Signal;HPM_P1;HPM_P2
2022/06/16 00:00:14;;;;;;;6.75;6.10;;;;;;;17.10;68.94;95325.66;5080831;28;20199;-74
2022/06/16 00:02:41;;;;;;;6.88;6.28;;;;;;;17.08;69.00;95328.06;5081628;28;20243;-76
2022/06/16 00:05:12;;;;;;;7.18;5.80;;;;;;;17.03;69.02;95326.44;5084382;28;20321;-76
2022/06/16 00:07:39;;;;;;;9.10;5.90;;;;;;;17.00;69.09;95332.00;5086460;28;20189;-76
2022/06/16 00:10:07;;;;;;;6.78;5.72;;;;;;;16.97;69.62;95324.41;5086304;28;20177;-76
2022/06/16 00:12:34;;;;;;;6.68;5.97;;;;;;;16.96;69.67;95326.41;5086194;28;20223;-76
2022/06/16 00:15:02;;;;;;;7.13;5.55;;;;;;;16.94;69.77;95325.19;5084127;28;20188;-76
2022/06/16 00:17:30;;;;;;;6.50;5.43;;;;;;;16.92;69.47;95322.78;5076207;28;20798;-75
2022/06/16 00:19:57;;;;;;;5.93;5.35;;;;;;;16.89;69.47;95329.13;5075322;28;20221;-75
2022/06/16 00:22:24;;;;;;;6.63;5.90;;;;;;;16.87;69.40;95330.69;5075103;28;20213;-75
2022/06/16 00:24:50;;;;;;;6.18;5.70;;;;;;;16.82;69.36;95329.88;5074199;28;20251;-75
2022/06/16 00:27:17;;;;;;;6.50;5.90;;;;;;;16.75;69.38;95327.03;5075575;28;20207;-75
2022/06/16 00:29:44;;;;;;;6.40;5.80;;;;;;;16.72;69.65;95321.41;5075276;28;20522;-75
2022/06/16 00:32:11;;;;;;;6.38;5.78;;;;;;;16.73;70.02;95332.16;5074448;28;20208;-75
2022/06/16 00:34:39;;;;;;;6.05;5.55;;;;;;;16.74;69.84;95324.63;5075276;28;20200;-79
2022/06/16 00:37:06;;;;;;;6.00;5.60;;;;;;;16.75;70.10;95326.25;5074731;28;20208;-77
2022/06/16 00:39:33;;;;;;;6.75;5.90;;;;;;;16.74;70.32;95328.22;5075659;28;20186;-78
2022/06/16 00:42:08;;;;;;;6.47;5.93;;;;;;;16.75;70.33;95323.47;5075710;28;20190;-78
2022/06/16 00:44:40;;;;;;;6.72;6.13;;;;;;;16.74;70.21;95322.66;5074283;28;20200;-78
2022/06/16 00:47:07;;;;;;;7.00;5.60;;;;;;;16.70;69.93;95321.78;5076060;28;20190;-77
2022/06/16 00:49:35;;;;;;;6.43;5.82;;;;;;;16.68;70.02;95320.59;5074184;28;20205;-77
2022/06/16 00:52:09;;;;;;;6.07;5.55;;;;;;;16.63;70.22;95320.94;5074925;28;20228;-76
2022/06/16 00:54:42;;;;;;;6.65;6.05;;;;;;;16.63;70.00;95324.53;5074029;28;20197;-76
2022/06/16 00:57:14;;;;;;;6.57;5.97;;;;;;;16.61;70.56;95318.53;5074369;28;20185;-76
2022/06/16 00:59:42;;;;;;;6.43;5.93;;;;;;;16.64;70.63;95319.75;5074856;28;20189;-76
2022/06/16 01:02:09;;;;;;;6.63;6.00;;;;;;;16.63;70.62;95318.13;5073732;28;20204;-76
2022/06/16 01:04:54;;;;;;;6.68;6.00;;;;;;;16.60;70.36;95314.16;5074622;28;20227;-76
2022/06/16 01:07:26;;;;;;;6.70;6.10;;;;;;;16.54;70.28;95313.72;5074598;28;20213;-77
2022/06/16 01:09:53;;;;;;;5.93;5.43;;;;;;;16.47;70.21;95310.88;5074914;28;20201;-78
2022/06/16 01:15:40;;;;;;;6.22;5.63;;;;;;;16.40;70.78;95310.81;5000447;28;20203;-76
2022/06/16 01:18:12;;;;;;;6.28;5.78;;;;;;;16.42;71.21;95310.44;5067891;28;20216;-77
2022/06/16 01:20:48;;;;;;;6.68;6.00;;;;;;;16.43;71.65;95312.03;5077527;28;20204;-77
2022/06/16 01:23:47;;;;;;;6.97;6.10;;;;;;;16.45;71.46;95306.84;5077197;28;20216;-76
2022/06/16 01:26:45;;;;;;;6.28;5.75;;;;;;;16.47;71.24;95315.63;5078029;28;20186;-74
2022/06/16 01:29:19;;;;;;;6.32;5.82;;;;;;;16.44;70.70;95310.84;5043204;28;20212;-74
2022/06/16 01:31:51;;;;;;;6.53;5.88;;;;;;;16.40;70.68;95296.88;5077783;28;20193;-76
2022/06/16 01:34:24;;;;;;;7.00;6.32;;;;;;;16.39;71.05;95303.66;5077000;28;20189;-75
2022/06/16 01:36:54;;;;;;;6.10;5.60;;;;;;;16.35;71.00;95300.03;5076500;28;20193;-76
2022/06/16 01:39:26;;;;;;;6.05;5.43;;;;;;;16.30;71.02;95303.97;5077056;28;20196;-75
2022/06/16 01:41:58;;;;;;;7.53;5.88;;;;;;;16.26;70.87;95302.31;5077783;28;20181;-76
2022/06/16 01:44:30;;;;;;;8.00;5.90;;;;;;;16.23;71.16;95297.53;5077460;28;20216;-77
2022/06/16 01:46:59;;;;;;;6.75;6.03;;;;;;;16.23;71.53;95295.56;5078068;28;20189;-77
2022/06/16 01:49:29;;;;;;;6.18;5.68;;;;;;;16.25;71.37;95295.16;5077094;28;20200;-77
2022/06/16 01:51:58;;;;;;;6.20;5.60;;;;;;;16.22;71.22;95293.94;5077310;28;20197;-76
2022/06/16 01:54:28;;;;;;;6.45;5.90;;;;;;;16.21;71.02;95294.34;5076534;28;20197;-75
2022/06/16 01:56:59;;;;;;;6.72;5.93;;;;;;;16.19;71.25;95291.13;5076623;28;20205;-75
2022/06/16 01:59:30;;;;;;;6.57;5.90;;;;;;;16.20;71.39;95292.75;5076289;28;20204;-76
2022/06/16 02:02:00;;;;;;;7.43;6.25;;;;;;;16.18;71.33;95290.34;5076374;28;20201;-75
2022/06/16 02:04:31;;;;;;;6.53;5.93;;;;;;;16.18;71.18;95287.56;5076758;28;20672;-75
2022/06/16 02:07:01;;;;;;;6.53;5.75;;;;;;;16.18;71.27;95283.97;5076140;28;20543;-75
2022/06/16 02:09:33;;;;;;;6.35;5.43;;;;;;;16.17;71.55;95288.75;5077111;28;20196;-76
2022/06/16 02:14:48;;;;;;;7.20;6.50;;;;;;;16.20;71.88;95296.31;5078203;28;20193;-76
2022/06/16 02:17:15;;;;;;;7.07;6.38;;;;;;;16.20;71.66;95298.31;5078101;28;20660;-76
2022/06/16 02:19:42;;;;;;;7.00;6.30;;;;;;;16.19;71.51;95303.06;5077453;28;20205;-76
2022/06/16 02:22:09;;;;;;;6.40;5.90;;;;;;;16.15;71.76;95295.88;5078025;28;20184;-76
2022/06/16 02:24:36;;;;;;;7.82;6.30;;;;;;;16.11;71.44;95295.84;5077245;28;20251;-76
2022/06/16 02:27:03;;;;;;;8.32;6.40;;;;;;;16.05;71.36;95303.75;5077548;28;20185;-76
2022/06/16 02:29:33;;;;;;;7.15;6.13;;;;;;;16.02;71.55;95304.50;5076705;28;20532;-76
2022/06/16 02:32:15;;;;;;;6.57;5.78;;;;;;;16.01;71.80;95304.88;5078552;28;20655;-78
2022/06/16 02:34:49;;;;;;;6.80;6.18;;;;;;;15.98;71.61;95314.00;5076924;28;20695;-74
2022/06/16 02:37:32;;;;;;;6.88;5.72;;;;;;;15.91;71.73;95309.16;5076264;28;20491;-72
2022/06/16 02:40:24;;;;;;;6.63;5.80;;;;;;;15.86;71.78;95315.84;5076737;28;20250;-73
2022/06/16 02:43:01;;;;;;;6.70;6.10;;;;;;;15.85;71.74;95319.81;5076313;28;20185;-74
2022/06/16 02:45:33;;;;;;;8.02;6.38;;;;;;;15.81;72.11;95315.41;5075523;28;20204;-74
2022/06/16 02:48:06;;;;;;;7.97;6.00;;;;;;;15.82;72.22;95328.13;5076142;28;20208;-75
2022/06/16 02:50:40;;;;;;;7.97;6.22;;;;;;;15.83;72.23;95322.19;5075055;28;20193;-74
2022/06/16 02:53:11;;;;;;;7.82;6.32;;;;;;;15.79;72.05;95324.09;5075377;28;20201;-75
2022/06/16 02:55:41;;;;;;;6.63;6.00;;;;;;;15.79;72.29;95329.66;5075170;28;20608;-74
2022/06/16 02:58:08;;;;;;;7.53;6.15;;;;;;;15.78;72.19;95328.06;5074835;28;20216;-74
2022/06/16 03:00:39;;;;;;;6.95;6.35;;;;;;;15.80;72.34;95331.28;5075803;28;20629;-75
2022/06/16 03:03:22;;;;;;;9.85;7.32;;;;;;;15.82;72.19;95325.34;5075032;28;20197;-75
2022/06/16 03:05:53;;;;;;;10.57;8.77;;;;;;;15.80;71.62;95331.28;5076043;28;20189;-75
2022/06/16 03:08:21;;;;;;;20.55;18.67;;;;;;;15.78;71.72;95333.63;5074664;28;20256;-75
2022/06/16 03:10:53;;;;;;;18.35;16.58;;;;;;;15.76;72.05;95332.41;5075006;28;20200;-75
2022/06/16 03:13:22;;;;;;;14.52;13.13;;;;;;;15.77;72.48;95329.25;5074800;28;20288;-75
2022/06/16 03:15:49;;;;;;;10.20;9.30;;;;;;;15.80;72.80;95325.72;5075506;28;20201;-74
2022/06/16 03:18:16;;;;;;;7.00;6.47;;;;;;;15.85;72.67;95322.59;5075599;28;20239;-74
2022/06/16 03:20:44;;;;;;;7.38;6.68;;;;;;;15.88;72.41;95327.41;5074799;28;20203;-74
2022/06/16 03:23:11;;;;;;;6.20;5.70;;;;;;;15.91;72.21;95327.84;5074944;28;20684;-72
2022/06/16 03:25:41;;;;;;;7.18;6.40;;;;;;;15.92;71.88;95329.44;5075236;28;20540;-73
2022/06/16 03:28:09;;;;;;;7.13;6.45;;;;;;;15.94;71.56;95327.88;5074638;28;20523;-73
2022/06/16 03:30:36;;;;;;;10.02;7.13;;;;;;;15.96;72.05;95330.25;5074946;28;20218;-71
2022/06/16 03:33:03;;;;;;;8.23;7.32;;;;;;;15.95;72.32;95331.44;5074574;28;20197;-72
2022/06/16 03:35:30;;;;;;;7.93;7.13;;;;;;;15.96;72.26;95333.03;5074247;28;20195;-74
2022/06/16 03:38:00;;;;;;;7.10;6.40;;;;;;;15.97;72.23;95329.88;5074962;28;20205;-74
2022/06/16 03:40:27;;;;;;;9.88;7.40;;;;;;;15.98;71.93;95320.34;5074753;28;20193;-74
2022/06/16 03:42:54;;;;;;;7.55;6.90;;;;;;;15.96;71.85;95319.94;5075158;28;20216;-74
2022/06/16 03:45:22;;;;;;;8.10;7.22;;;;;;;15.94;72.13;95321.47;5074789;28;20225;-74
2022/06/16 03:47:49;;;;;;;7.40;6.80;;;;;;;15.94;72.42;95318.69;5075255;28;20196;-74
2022/06/16 03:50:18;;;;;;;10.30;6.78;;;;;;;15.93;72.42;95317.91;5075084;28;20220;-74
2022/06/16 03:52:45;;;;;;;7.93;7.03;;;;;;;15.90;72.24;95324.22;5074921;28;20212;-74
2022/06/16 03:55:13;;;;;;;8.60;7.65;;;;;;;15.87;72.53;95322.22;5074353;28;20551;-74
2022/06/16 03:57:40;;;;;;;8.93;7.55;;;;;;;15.90;72.66;95327.00;5074650;28;20200;-74
2022/06/16 04:00:09;;;;;;;8.80;7.97;;;;;;;15.86;72.64;95324.19;5074662;28;20201;-74
2022/06/16 04:02:36;;;;;;;8.57;7.22;;;;;;;15.87;73.23;95327.78;5074811;28;20196;-74
2022/06/16 04:05:02;;;;;;;7.53;6.82;;;;;;;15.88;72.92;95327.41;5075046;28;20239;-74
2022/06/16 04:07:29;;;;;;;9.23;7.05;;;;;;;15.94;72.63;95325.09;5075248;28;20296;-74
2022/06/16 04:09:56;;;;;;;10.55;7.15;;;;;;;15.95;72.31;95317.53;5074774;28;20185;-74
2022/06/16 04:12:28;;;;;;;7.97;7.07;;;;;;;15.96;72.50;95328.28;5075130;28;20201;-74
2022/06/16 04:14:54;;;;;;;7.88;7.15;;;;;;;15.97;72.67;95327.09;5074885;28;20205;-74
2022/06/16 04:17:21;;;;;;;8.50;7.70;;;;;;;16.00;72.81;95329.09;5075700;28;20177;-74
2022/06/16 04:22:32;;;;;;;8.35;7.55;;;;;;;16.04;72.84;95327.16;5075370;28;20173;-73
2022/06/16 04:24:59;;;;;;;8.02;7.22;;;;;;;16.05;72.91;95328.78;5074617;28;20586;-74
2022/06/16 04:27:27;;;;;;;7.32;6.72;;;;;;;16.06;72.83;95335.13;5075522;28;20201;-73
2022/06/16 04:29:54;;;;;;;8.38;7.65;;;;;;;16.07;72.92;95329.19;5075526;28;20204;-74
2022/06/16 04:32:21;;;;;;;8.10;7.50;;;;;;;16.11;73.17;95332.00;5074628;28;20193;-74
2022/06/16 04:34:48;;;;;;;8.38;7.60;;;;;;;16.09;73.35;95324.06;5074788;28;20199;-74
2022/06/16 04:37:15;;;;;;;8.10;7.40;;;;;;;16.11;73.45;95327.22;5074621;28;20203;-74
2022/06/16 04:39:42;;;;;;;8.32;7.63;;;;;;;16.12;73.29;95326.06;5075448;28;20193;-74
2022/06/16 04:42:09;;;;;;;7.55;6.75;;;;;;;16.15;73.62;95324.47;5074913;28;20219;-73
2022/06/16 04:44:39;;;;;;;7.75;6.97;;;;;;;16.22;73.29;95326.53;5075686;28;20322;-74
2022/06/16 04:47:06;;;;;;;8.45;7.65;;;;;;;16.20;73.11;95332.50;5077358;28;20197;-74
2022/06/16 04:49:33;;;;;;;7.55;6.85;;;;;;;16.22;72.48;95327.34;5078661;28;20193;-74
2022/06/16 04:52:00;;;;;;;7.55;6.65;;;;;;;16.22;73.43;95337.66;5078905;28;20201;-74
2022/06/16 04:54:27;;;;;;;8.00;7.10;;;;;;;16.25;73.41;95329.34;5077822;28;20203;-74
2022/06/16 04:56:54;;;;;;;7.15;6.50;;;;;;;16.27;73.19;95331.78;5077823;28;20720;-74
2022/06/16 04:59:21;;;;;;;7.15;6.45;;;;;;;16.25;72.61;95332.13;5079043;28;20182;-74
2022/06/16 05:01:49;;;;;;;7.47;6.78;;;;;;;16.27;72.31;95326.22;5078924;28;20288;-73
2022/06/16 05:04:16;;;;;;;7.45;6.72;;;;;;;16.28;72.51;95333.38;5078409;28;20205;-74
2022/06/16 05:06:43;;;;;;;8.55;7.75;;;;;;;16.32;72.54;95325.84;5077829;28;20280;-74
2022/06/16 05:09:10;;;;;;;7.75;7.05;;;;;;;16.34;72.48;95329.06;5077774;28;20193;-74
2022/06/16 05:11:37;;;;;;;7.70;7.03;;;;;;;16.36;72.53;95318.31;5077609;28;20213;-74
2022/06/16 05:14:05;;;;;;;8.20;7.40;;;;;;;16.36;72.47;95321.91;5078146;28;20189;-74
2022/06/16 05:16:32;;;;;;;8.48;7.68;;;;;;;16.40;72.88;95321.13;5077616;28;20193;-74
2022/06/16 05:19:00;;;;;;;8.57;7.78;;;;;;;16.42;72.83;95322.38;5077148;28;20219;-74
2022/06/16 05:21:27;;;;;;;8.00;7.28;;;;;;;16.44;72.82;95331.13;5077230;28;20197;-74
2022/06/16 05:23:54;;;;;;;9.27;8.48;;;;;;;16.46;72.32;95325.97;5077265;28;20620;-74
2022/06/16 05:26:20;;;;;;;8.85;8.00;;;;;;;16.47;72.12;95335.13;5077715;28;20193;-74
2022/06/16 05:28:47;;;;;;;8.77;7.85;;;;;;;16.49;72.43;95332.78;5077340;28;20181;-74
2022/06/16 05:31:14;;;;;;;8.55;7.72;;;;;;;16.51;72.90;95333.97;5077391;28;20708;-74
2022/06/16 05:33:41;;;;;;;9.40;8.48;;;;;;;16.56;73.17;95328.06;5077205;28;20197;-74
2022/06/16 05:36:12;;;;;;;9.65;8.70;;;;;;;16.60;73.11;95336.44;5077352;28;20258;-74
2022/06/16 05:38:39;;;;;;;10.23;9.32;;;;;;;16.66;73.11;95331.28;5077005;28;20185;-74
2022/06/16 05:41:13;;;;;;;11.18;10.05;;;;;;;16.73;72.90;95336.91;5077440;28;20231;-74
2022/06/16 05:43:40;;;;;;;11.18;10.02;;;;;;;16.81;72.48;95349.75;5077408;28;20494;-74
2022/06/16 05:46:08;;;;;;;12.20;10.90;;;;;;;16.87;72.24;95350.19;5076567;28;20300;-74
2022/06/16 05:48:35;;;;;;;11.98;10.88;;;;;;;16.88;72.30;95347.00;5076817;28;20197;-74
2022/06/16 05:51:07;;;;;;;11.40;10.45;;;;;;;16.89;72.39;95345.84;5077071;28;20198;-74
2022/06/16 05:53:35;;;;;;;12.02;10.93;;;;;;;16.89;73.31;95342.25;5077061;28;20205;-74
2022/06/16 05:56:03;;;;;;;12.48;11.38;;;;;;;16.89;73.17;95345.84;5077521;28;20199;-74
2022/06/16 05:58:30;;;;;;;12.88;11.60;;;;;;;16.93;73.20;95345.88;5076649;28;20196;-74
2022/06/16 06:00:57;;;;;;;13.23;12.13;;;;;;;16.97;72.74;95341.91;5076696;28;20566;-74
2022/06/16 06:03:24;;;;;;;13.40;12.05;;;;;;;17.01;72.55;95341.94;5076728;28;20200;-74
2022/06/16 06:05:51;;;;;;;12.95;11.75;;;;;;;17.04;72.81;95336.38;5077153;28;20219;-74
2022/06/16 06:16:39;;;;;;;14.35;13.02;;;;;;;17.21;72.97;95334.09;5076611;28;20215;-74
2022/06/16 06:19:25;;;;;;;14.13;12.73;;;;;;;17.27;72.51;95329.75;5076929;28;20621;-74
2022/06/16 06:22:00;;;;;;;16.92;13.52;;;;;;;17.33;72.80;95337.38;5076511;28;20207;-74
2022/06/16 06:24:27;;;;;;;15.50;13.95;;;;;;;17.39;72.69;95340.56;5076360;28;20286;-74
2022/06/16 06:26:56;;;;;;;14.98;13.48;;;;;;;17.39;72.20;95337.78;5076270;28;20197;-74
2022/06/16 06:29:23;;;;;;;15.10;13.55;;;;;;;17.42;72.28;95342.56;5075950;28;20247;-74
2022/06/16 06:31:50;;;;;;;15.07;13.60;;;;;;;17.45;72.41;95344.59;5076519;28;20256;-74
2022/06/16 06:34:17;;;;;;;16.33;14.65;;;;;;;17.47;72.42;95345.00;5076503;28;20297;-74
2022/06/16 06:36:44;;;;;;;16.67;14.25;;;;;;;17.48;72.13;95345.81;5075838;28;20195;-74
2022/06/16 06:39:12;;;;;;;15.52;14.05;;;;;;;17.52;72.25;95346.63;5076843;28;20327;-74
2022/06/16 06:41:39;;;;;;;17.42;14.10;;;;;;;17.59;72.25;95346.66;5076271;28;20207;-74
2022/06/16 06:44:07;;;;;;;16.23;14.63;;;;;;;17.66;72.47;95343.88;5076233;28;20197;-74
2022/06/16 06:46:34;;;;;;;16.48;14.65;;;;;;;17.71;72.27;95340.72;5075608;28;20204;-74
2022/06/16 06:49:00;;;;;;;15.48;13.90;;;;;;;17.76;72.80;95343.16;5075534;28;20204;-74
2022/06/16 06:51:27;;;;;;;18.30;15.77;;;;;;;17.85;72.78;95342.78;5075782;28;20269;-74
2022/06/16 06:53:54;;;;;;;17.50;15.68;;;;;;;17.90;72.40;95341.59;5075446;28;20284;-74
2022/06/16 06:56:21;;;;;;;19.13;17.15;;;;;;;17.95;72.40;95342.03;5075670;28;20203;-74
2022/06/16 06:58:48;;;;;;;18.95;16.50;;;;;;;18.01;72.59;95345.22;5075625;28;20543;-74
2022/06/16 07:01:16;;;;;;;16.52;14.95;;;;;;;18.07;72.42;95343.66;5075676;28;20275;-74
2022/06/16 07:03:43;;;;;;;19.40;16.60;;;;;;;18.11;72.35;95338.09;5076691;28;20193;-74
2022/06/16 07:06:10;;;;;;;17.30;15.57;;;;;;;18.14;72.06;95340.88;5075848;28;20221;-74
2022/06/16 07:08:37;;;;;;;20.67;18.55;;;;;;;18.16;71.84;95340.50;5076467;28;20264;-74
2022/06/16 07:11:04;;;;;;;17.25;15.48;;;;;;;18.23;72.46;95338.53;5075510;28;20544;-74
2022/06/16 07:13:31;;;;;;;17.60;15.73;;;;;;;18.29;72.70;95342.50;5075297;28;20210;-74
2022/06/16 07:15:58;;;;;;;17.92;16.02;;;;;;;18.35;71.59;95339.34;5075575;28;20185;-74
2022/06/16 07:18:26;;;;;;;19.30;16.33;;;;;;;18.38;71.44;95342.13;5075552;28;20189;-74
2022/06/16 07:20:53;;;;;;;18.67;16.83;;;;;;;18.41;71.21;95344.13;5075389;28;20280;-73
2022/06/16 07:23:20;;;;;;;17.58;15.82;;;;;;;18.45;71.56;95330.97;5075845;28;20205;-74
2022/06/16 07:25:48;;;;;;;15.60;13.48;;;;;;;18.49;71.48;95333.78;5075601;28;20233;-74
2022/06/16 07:28:15;;;;;;;18.55;16.65;;;;;;;18.53;72.20;95337.38;5075677;28;20181;-74
2022/06/16 07:30:43;;;;;;;17.15;15.25;;;;;;;18.54;72.06;95327.78;5075767;28;20188;-74
2022/06/16 07:33:12;;;;;;;18.23;16.00;;;;;;;18.58;72.23;95328.56;5075153;28;20308;-74
2022/06/16 07:35:43;;;;;;;17.50;15.70;;;;;;;18.62;72.51;95332.16;5075898;28;20228;-74
2022/06/16 07:38:10;;;;;;;18.25;16.40;;;;;;;18.65;72.07;95325.00;5075261;28;20197;-74
2022/06/16 07:40:37;;;;;;;17.23;15.45;;;;;;;18.71;72.75;95329.81;5074701;28;20201;-74
2022/06/16 07:43:04;;;;;;;21.60;17.20;;;;;;;18.79;72.17;95318.63;5074853;28;20203;-74
2022/06/16 07:45:34;;;;;;;18.55;16.60;;;;;;;18.80;71.06;95325.81;5075306;28;20228;-74
2022/06/16 07:48:02;;;;;;;17.25;15.48;;;;;;;18.81;70.91;95324.59;5075429;28;20288;-74
2022/06/16 07:50:30;;;;;;;18.02;16.13;;;;;;;18.88;72.14;95327.41;5075797;28;20242;-74
2022/06/16 07:52:58;;;;;;;18.15;16.25;;;;;;;19.00;70.96;95319.41;5075725;28;20243;-73
2022/06/16 07:55:25;;;;;;;18.15;16.27;;;;;;;19.04;71.38;95321.41;5075449;28;20207;-74
2022/06/16 07:57:53;;;;;;;17.95;15.60;;;;;;;19.04;70.81;95330.59;5074901;28;20213;-74
2022/06/16 08:00:23;;;;;;;18.60;16.40;;;;;;;19.13;70.48;95330.16;5076576;28;20191;-74
2022/06/16 08:02:50;;;;;;;18.40;16.58;;;;;;;19.17;70.25;95336.53;5075409;28;20208;-74
2022/06/16 08:05:19;;;;;;;18.23;16.42;;;;;;;19.24;70.62;95320.59;5075984;28;20216;-74
2022/06/16 08:07:45;;;;;;;21.27;16.92;;;;;;;19.32;70.44;95321.34;5075162;28;20292;-74
2022/06/16 08:10:17;;;;;;;18.88;16.02;;;;;;;19.41;69.65;95320.91;5075703;28;20217;-74
2022/06/16 08:12:44;;;;;;;17.83;15.88;;;;;;;19.43;69.07;95321.31;5075573;28;20231;-74
2022/06/16 08:15:11;;;;;;;17.38;15.68;;;;;;;19.42;68.69;95326.09;5075895;28;20205;-74
2022/06/16 08:17:40;;;;;;;21.13;16.13;;;;;;;19.49;70.13;95330.88;5075613;28;20201;-73
2022/06/16 08:20:08;;;;;;;17.65;15.75;;;;;;;19.64;69.09;95329.66;5075207;28;20300;-74
2022/06/16 08:22:37;;;;;;;17.83;16.13;;;;;;;19.76;68.46;95333.22;5079243;28;20205;-74
2022/06/16 08:25:04;;;;;;;20.92;17.38;;;;;;;19.87;68.01;95331.19;5080284;28;20239;-74
2022/06/16 08:27:35;;;;;;;19.80;16.85;;;;;;;19.86;68.17;95327.59;5079789;28;20651;-74
2022/06/16 08:30:04;;;;;;;20.38;18.13;;;;;;;19.93;69.34;95326.75;5078813;28;20197;-74
2022/06/16 08:32:31;;;;;;;19.58;17.33;;;;;;;20.01;68.09;95324.69;5080160;28;20193;-74
2022/06/16 08:34:58;;;;;;;18.70;16.70;;;;;;;19.93;66.91;95324.75;5079140;28;20205;-74
2022/06/16 08:37:25;;;;;;;19.35;17.30;;;;;;;19.88;67.41;95325.16;5079857;28;20199;-74
2022/06/16 08:39:52;;;;;;;18.95;16.90;;;;;;;19.84;67.55;95324.38;5078952;28;20524;-74
2022/06/16 08:42:22;;;;;;;19.40;16.48;;;;;;;19.88;67.41;95322.38;5079684;28;20195;-74
2022/06/16 08:44:55;;;;;;;21.00;16.42;;;;;;;20.06;68.27;95315.88;5078731;28;20205;-74
2022/06/16 08:47:26;;;;;;;18.38;16.52;;;;;;;20.15;66.17;95319.03;5079321;28;20292;-74
2022/06/16 08:49:59;;;;;;;19.30;17.30;;;;;;;20.18;65.65;95318.22;5079768;28;20207;-74
2022/06/16 08:52:38;;;;;;;19.92;17.45;;;;;;;20.17;64.93;95313.81;5079319;28;20242;-74
2022/06/16 08:55:09;;;;;;;22.42;17.67;;;;;;;20.16;65.56;95323.44;5078737;28;20272;-74
2022/06/16 08:57:45;;;;;;;18.00;16.20;;;;;;;20.15;63.20;95313.41;5078852;28;20189;-74
2022/06/16 09:00:17;;;;;;;18.92;17.13;;;;;;;20.12;62.30;95320.66;5078479;28;20205;-74
2022/06/16 09:02:54;;;;;;;17.35;15.68;;;;;;;20.06;62.94;95316.69;5078914;28;20201;-74
2022/06/16 09:05:35;;;;;;;18.77;16.98;;;;;;;20.04;63.48;95310.69;5078132;28;20590;-74
2022/06/16 09:08:10;;;;;;;18.15;15.88;;;;;;;20.01;64.19;95316.28;5078821;28;20211;-74
2022/06/16 09:10:40;;;;;;;24.92;22.40;;;;;;;20.01;64.03;95310.69;5078609;28;20292;-74
2022/06/16 09:13:44;;;;;;;19.88;17.98;;;;;;;20.04;64.47;95310.69;5079022;28;20254;-74
2022/06/16 09:16:22;;;;;;;19.05;17.05;;;;;;;20.10;64.09;95317.44;5012580;28;20204;-74
2022/06/16 09:19:27;;;;;;;19.40;17.30;;;;;;;20.16;63.78;95306.63;5078357;28;20193;-74
2022/06/16 09:22:05;;;;;;;17.38;15.63;;;;;;;20.20;63.58;95313.81;5061932;28;20244;-74
2022/06/16 09:24:59;;;;;;;18.00;16.20;;;;;;;20.22;63.49;95302.16;5078222;28;20236;-74
2022/06/16 09:27:30;;;;;;;18.00;16.38;;;;;;;20.24;63.30;95293.38;5078175;28;20201;-74
2022/06/16 09:30:00;;;;;;;18.13;16.23;;;;;;;20.24;64.02;95293.38;5078639;28;20193;-74
2022/06/16 09:32:32;;;;;;;18.58;16.70;;;;;;;20.50;63.48;95287.22;5078006;28;20620;-74
2022/06/16 09:35:03;;;;;;;18.23;16.42;;;;;;;20.62;62.74;95283.91;5078085;28;20204;-74
2022/06/16 09:37:36;;;;;;;18.17;16.33;;;;;;;20.88;62.97;95284.50;5077915;28;20199;-74
2022/06/16 09:40:08;;;;;;;18.25;15.68;;;;;;;21.18;61.44;95288.63;5078793;28;20204;-74
2022/06/16 09:42:39;;;;;;;18.02;16.23;;;;;;;21.43;59.44;95279.97;5078098;28;20208;-74
2022/06/16 09:45:13;;;;;;;16.98;15.38;;;;;;;21.52;60.27;95269.03;5077988;28;20201;-74
2022/06/16 09:47:46;;;;;;;16.42;14.77;;;;;;;21.58;60.54;95281.38;5078000;28;20590;-74
2022/06/16 09:50:19;;;;;;;16.35;14.77;;;;;;;21.55;57.85;95274.59;5077463;28;20207;-74
2022/06/16 09:52:51;;;;;;;16.90;15.20;;;;;;;21.44;58.63;95270.31;5078980;28;20177;-74
2022/06/16 09:55:22;;;;;;;16.70;15.10;;;;;;;21.56;58.60;95273.38;5078914;28;20620;-74
2022/06/16 09:57:51;;;;;;;15.73;14.25;;;;;;;21.72;58.26;95269.19;5077704;28;20230;-74
2022/06/16 10:00:20;;;;;;;15.65;14.25;;;;;;;21.88;57.26;95272.16;5077538;28;20254;-74
2022/06/16 10:02:51;;;;;;;15.50;14.07;;;;;;;21.99;55.29;95272.81;5078469;28;20200;-74
2022/06/16 10:05:26;;;;;;;15.40;13.90;;;;;;;22.07;56.57;95271.50;5077259;28;20189;-74
2022/06/16 10:07:57;;;;;;;15.52;14.02;;;;;;;22.19;53.98;95277.81;5078256;28;20196;-74
2022/06/16 10:10:29;;;;;;;15.73;14.05;;;;;;;22.20;55.48;95268.16;5077154;28;20228;-74
2022/06/16 10:13:00;;;;;;;15.32;13.32;;;;;;;22.35;52.52;95272.34;5077336;28;20197;-74
2022/06/16 10:15:32;;;;;;;15.57;13.95;;;;;;;22.39;53.45;95267.47;5077244;28;20193;-74
2022/06/16 10:18:01;;;;;;;14.90;13.40;;;;;;;22.44;54.51;95263.34;5077476;28;20235;-74
2022/06/16 10:20:30;;;;;;;13.95;12.65;;;;;;;22.41;52.64;95258.63;5078037;28;20205;-74
2022/06/16 10:23:01;;;;;;;13.98;12.63;;;;;;;22.34;52.78;95256.72;5078498;28;20212;-74
2022/06/16 10:25:31;;;;;;;14.18;12.77;;;;;;;22.44;53.87;95255.75;5078762;28;20240;-74
2022/06/16 10:28:02;;;;;;;14.40;13.05;;;;;;;22.67;52.69;95248.56;5077907;28;20296;-74
2022/06/16 10:30:36;;;;;;;14.80;13.38;;;;;;;22.74;51.71;95248.44;5077565;28;20219;-74
2022/06/16 10:33:15;;;;;;;16.35;13.38;;;;;;;22.83;53.05;95252.25;5076669;28;20215;-74
2022/06/16 10:35:47;;;;;;;18.02;14.07;;;;;;;22.89;52.64;95246.97;5076897;28;20288;-73
2022/06/16 10:38:22;;;;;;;15.65;14.15;;;;;;;23.02;51.93;95245.16;5076570;28;20620;-74
2022/06/16 10:40:49;;;;;;;15.15;13.73;;;;;;;22.93;50.74;95242.09;5077064;28;20211;-74
2022/06/16 10:43:17;;;;;;;15.75;14.20;;;;;;;22.84;51.98;95244.66;5076848;28;20192;-74
2022/06/16 10:45:55;;;;;;;15.68;14.18;;;;;;;22.83;52.68;95240.22;5077531;28;20239;-74
2022/06/16 10:48:30;;;;;;;16.15;14.63;;;;;;;22.98;53.62;95232.34;5076904;28;20205;-74
2022/06/16 10:51:06;;;;;;;15.50;14.10;;;;;;;23.09;52.78;95235.75;5076635;28;20218;-74
2022/06/16 10:53:36;;;;;;;15.48;13.98;;;;;;;23.23;53.22;95235.50;5076762;28;20548;-74
2022/06/16 10:56:11;;;;;;;15.70;14.20;;;;;;;23.33;52.24;95244.16;5076528;28;20210;-74
2022/06/16 10:58:51;;;;;;;14.90;13.50;;;;;;;23.33;49.10;95232.91;5077280;28;20197;-74
2022/06/16 11:01:22;;;;;;;14.77;13.38;;;;;;;23.34;49.27;95240.91;5076985;28;20254;-74
2022/06/16 11:03:51;;;;;;;14.63;13.13;;;;;;;23.32;49.15;95232.13;5077075;28;20197;-74
2022/06/16 11:06:20;;;;;;;14.25;12.95;;;;;;;23.39;50.24;95226.34;5075920;28;20219;-74
2022/06/16 11:08:49;;;;;;;14.80;13.30;;;;;;;23.41;48.97;95226.69;5076653;28;20207;-74
2022/06/16 11:11:19;;;;;;;15.23;13.73;;;;;;;23.43;48.11;95232.72;5076081;28;20247;-74
2022/06/16 11:13:48;;;;;;;14.80;13.35;;;;;;;23.39;46.63;95223.53;5076766;28;20193;-74
2022/06/16 11:16:28;;;;;;;14.63;13.32;;;;;;;23.41;50.46;95223.09;5075468;28;20320;-74
2022/06/16 11:18:58;;;;;;;15.27;13.88;;;;;;;23.52;49.15;95216.00;5075829;28;20299;-73
2022/06/16 11:21:29;;;;;;;14.98;13.57;;;;;;;23.42;47.89;95213.41;5075262;28;20637;-74
2022/06/16 11:23:59;;;;;;;15.15;13.65;;;;;;;23.24;48.74;95220.22;5075357;28;20283;-74
2022/06/16 11:26:28;;;;;;;14.48;13.13;;;;;;;23.08;48.52;95216.50;5076158;28;20274;-74
2022/06/16 11:28:57;;;;;;;15.05;13.65;;;;;;;22.93;49.62;95213.19;5074972;28;20193;-74
2022/06/16 11:31:25;;;;;;;15.63;13.85;;;;;;;22.85;49.47;95215.28;5075064;28;20193;-74
2022/06/16 11:34:08;;;;;;;15.27;13.68;;;;;;;22.77;51.43;95220.25;5075881;28;20199;-73
2022/06/16 11:36:57;;;;;;;14.95;13.32;;;;;;;22.72;50.39;95219.94;5075254;28;20295;-74
2022/06/16 11:39:31;;;;;;;15.15;13.75;;;;;;;22.64;51.98;95210.84;5075291;28;20231;-74
2022/06/16 11:41:59;;;;;;;15.35;13.88;;;;;;;22.60;52.88;95212.91;5075114;28;20606;-74
2022/06/16 11:44:44;;;;;;;15.95;14.43;;;;;;;22.54;53.21;95204.16;5075764;28;20212;-74
2022/06/16 11:47:25;;;;;;;15.07;13.68;;;;;;;22.49;51.11;95212.31;5075314;28;20220;-74
2022/06/16 11:49:59;;;;;;;16.42;14.82;;;;;;;22.45;51.71;95203.16;5076470;28;20557;-74
2022/06/16 11:52:30;;;;;;;15.73;14.32;;;;;;;22.40;51.39;95201.59;5075903;28;20292;-74
2022/06/16 11:55:02;;;;;;;15.43;13.95;;;;;;;22.37;49.82;95205.28;5074805;28;20200;-74